Kassel-Calden Airport

EDVK · Hesse, 德国

METAR的历史 EDVK · Kassel-Calden Airport

下面你可以看到过去几天的METARs。 选择年份以浏览从2007年开始的旧METAR。

2024年6月25日

时间 代码 天气 温度 能见度 天花板 METAR/SPECI
19:50
V
25 °C 10 km+ - 090° 090° 10 kt METAR EDVK 251750Z 09010KT CAVOK 25/13 Q1014
19:20
V
25 °C 10 km+ - 100° 100° 12 kt METAR EDVK 251720Z 10012KT CAVOK 25/13 Q1014
18:50
V
26 °C 10 km+ - 090° 090° 10 kt METAR EDVK 251650Z 09010KT CAVOK 26/13 Q1014
18:20
V
26 °C 10 km+ - 090° 090° 12 kt METAR EDVK 251620Z 09012KT CAVOK 26/12 Q1015
17:50
V
26 °C 10 km+ - 080° 080° 10 kt METAR EDVK 251550Z 08010KT 050V110 CAVOK 26/13 Q1015
17:20
V
26 °C 10 km+ - 090° 090° 11 kt METAR EDVK 251520Z 09011KT 050V110 CAVOK 26/12 Q1015
16:50
V
26 °C 10 km+ - 090° 090° 13 kt METAR EDVK 251450Z 09013KT 060V120 CAVOK 26/12 Q1015
16:20
V
26 °C 10 km+ - 070° 070° 11 kt METAR EDVK 251420Z 07011KT 030V100 CAVOK 26/10 Q1015
15:50
V
26 °C 10 km+ - 070° 070° 10 kt METAR EDVK 251350Z 07010KT 030V100 CAVOK 26/10 Q1016
15:20
V
26 °C 10 km+ - 090° 090° 9 kt METAR EDVK 251320Z 09009KT 060V120 CAVOK 26/12 Q1016
14:50
V
26 °C 10 km+ - 070° 070° 7 kt METAR EDVK 251250Z 07007KT 030V100 CAVOK 26/13 Q1016
14:20
V
25 °C 10 km+ - 080° 080° 9 kt METAR EDVK 251220Z 08009KT 040V110 CAVOK 25/12 Q1016
13:50
V
26 °C 10 km+ - 060° 060° 7 kt METAR EDVK 251150Z 06007KT 020V110 CAVOK 26/13 Q1016
13:20
V
26 °C 10 km+ - 080° 080° 7 kt METAR EDVK 251120Z 08007KT 040V150 CAVOK 26/14 Q1017
12:50
V
25 °C 10 km+ - 070° 070° 9 kt METAR EDVK 251050Z 07009KT 040V100 9999 FEW048 25/14 Q1017
12:20
V
25 °C 10 km+ - 110° 110° 9 kt METAR EDVK 251020Z 11009KT 090V150 9999 FEW047 25/14 Q1017
11:50
V
24 °C 10 km+ - 090° 090° 11 kt METAR EDVK 250950Z 09011KT 060V120 CAVOK 24/12 Q1017
11:20
V
24 °C 10 km+ - 080° 080° 9 kt METAR EDVK 250920Z 08009KT CAVOK 24/12 Q1017
10:50
V
23 °C 10 km+ - 090° 090° 9 kt METAR EDVK 250850Z 09009KT CAVOK 23/12 Q1017
10:20
V
23 °C 10 km+ - 090° 090° 6 kt METAR EDVK 250820Z 09006KT 060V130 CAVOK 23/12 Q1017
09:50
V
22 °C 10 km+ - 080° 080° 4 kt METAR EDVK 250750Z 08004KT 020V120 CAVOK 22/13 Q1018
09:20
V
21 °C 10 km+ - 100° 100° 3 kt METAR EDVK 250720Z 10003KT 010V160 CAVOK 21/13 Q1018
08:50
V
19 °C 10 km+ - Var Var 4 kt METAR EDVK 250650Z VRB04KT CAVOK 19/14 Q1018
08:20
V
18 °C 10 km+ - 070° 070° 3 kt METAR EDVK 250620Z 07003KT 010V110 CAVOK 18/14 Q1018
07:50
V
16 °C 10 km+ - 040° 040° 4 kt METAR EDVK 250550Z 04004KT 010V070 CAVOK 16/14 Q1018

2024年6月24日

时间 代码 天气 温度 能见度 天花板 METAR/SPECI
22:50
V
19 °C 10 km+ - 070° 070° 2 kt METAR EDVK 242050Z AUTO 07002KT 9999 // NCD 19/13 Q1019
22:20
V
19 °C 10 km+ - Var Var 2 kt METAR EDVK 242020Z AUTO VRB02KT 9999 // NCD 19/13 Q1019
21:50
I
21 °C 3 km - 080° 080° 3 kt METAR EDVK 241950Z AUTO 08003KT 9999 3000 // NCD 21/13 Q1019
21:20
V
22 °C 10 km+ - 060° 060° 4 kt METAR EDVK 241920Z 06004KT CAVOK 22/13 Q1018
20:50
V
23 °C 10 km+ - 030° 030° 3 kt METAR EDVK 241850Z 03003KT CAVOK 23/12 Q1018
20:20
V
23 °C 10 km+ - 030° 030° 2 kt METAR EDVK 241820Z 03002KT CAVOK 23/13 Q1018
19:50
V
23 °C 10 km+ - 050° 050° 4 kt METAR EDVK 241750Z 05004KT CAVOK 23/11 Q1018
19:20
V
25 °C 10 km+ - 080° 080° 4 kt METAR EDVK 241720Z 08004KT CAVOK 25/12 Q1019
18:50
V
25 °C 10 km+ - 070° 070° 6 kt METAR EDVK 241650Z 07006KT 020V100 CAVOK 25/11 Q1019
18:20
V
25 °C 10 km+ - 060° 060° 3 kt METAR EDVK 241620Z 06003KT CAVOK 25/11 Q1019
17:50
V
25 °C 10 km+ - 080° 080° 4 kt METAR EDVK 241550Z 08004KT 330V120 CAVOK 25/11 Q1019
17:20
V
25 °C 10 km+ - Var Var 2 kt METAR EDVK 241520Z VRB02KT CAVOK 25/12 Q1019
16:50
V
24 °C 10 km+ - 090° 090° 3 kt METAR EDVK 241450Z 09003KT 020V160 CAVOK 24/11 Q1019
16:20
V
24 °C 10 km+ - 050° 050° 3 kt METAR EDVK 241420Z 05003KT 350V110 CAVOK 24/11 Q1019
15:50
V
25 °C 10 km+ - 010° 010° 4 kt METAR EDVK 241350Z 01004KT 270V080 CAVOK 25/11 Q1019
15:20
V
25 °C 10 km+ - Var Var 3 kt METAR EDVK 241320Z VRB03KT CAVOK 25/12 Q1020
14:50
V
24 °C 10 km+ - Var Var 2 kt METAR EDVK 241250Z VRB02KT CAVOK 24/12 Q1020
14:20
V
24 °C 10 km+ - Var Var 3 kt METAR EDVK 241220Z VRB03KT CAVOK 24/13 Q1020
13:50
V
23 °C 10 km+ - Var Var 2 kt METAR EDVK 241150Z VRB02KT CAVOK 23/11 Q1020
13:20
V
24 °C 10 km+ - Var Var 3 kt METAR EDVK 241120Z VRB03KT CAVOK 24/11 Q1020
12:50
V
23 °C 10 km+ - Var Var 4 kt METAR EDVK 241050Z VRB04KT 9999 FEW048 23/12 Q1021
12:20
V
23 °C 10 km+ - Var Var 4 kt METAR EDVK 241020Z VRB04KT 9999 FEW045 23/11 Q1021
11:50
V
22 °C 10 km+ - Var Var 4 kt METAR EDVK 240950Z VRB04KT 9999 FEW044 22/11 Q1021
11:20
V
22 °C 10 km+ - 020° 020° 3 kt METAR EDVK 240920Z 02003KT 320V070 9999 FEW040 22/13 Q1021
10:50
V
22 °C 10 km+ - Var Var 2 kt METAR EDVK 240850Z VRB02KT 9999 FEW041 22/12 Q1021
10:20
V
21 °C 10 km+ - Var Var 2 kt METAR EDVK 240820Z VRB02KT 9999 FEW030 21/12 Q1021
09:50
V
21 °C 10 km+ - Var Var 1 kt METAR EDVK 240750Z VRB01KT 9999 FEW028 21/14 Q1021
09:20
V
20 °C 10 km+ - Var Var 1 kt METAR EDVK 240720Z VRB01KT 9999 FEW022 20/14 Q1021
08:50
V
18 °C 10 km+ - Var Var 1 kt METAR EDVK 240650Z VRB01KT CAVOK 18/14 Q1021
08:20
V
17 °C 10 km+ - Var Var 1 kt METAR EDVK 240620Z VRB01KT CAVOK 17/14 Q1021
07:50
V
16 °C 10 km+ - 360° 360° 0 kt METAR EDVK 240550Z 00000KT CAVOK 16/13 Q1021
07:20
V
15 °C 10 km+ - 360° 360° 0 kt METAR EDVK 240520Z 00000KT CAVOK 15/13 Q1021
06:50
V
14 °C 10 km+ - 360° 360° 0 kt METAR EDVK 240450Z AUTO 00000KT 9999 // NCD 14/12 Q1021
06:20
V
13 °C 10 km+ - 360° 360° 0 kt METAR EDVK 240420Z AUTO 00000KT 9999 // NCD 13/12 Q1021
05:50
V
12 °C 10 km+ - 360° 360° 0 kt METAR EDVK 240350Z AUTO 00000KT 9999 // NCD 12/11 Q1021
05:20
V
12 °C 10 km+ - 250° 250° 1 kt METAR EDVK 240320Z AUTO 25001KT 9999 // NCD 12/11 Q1021
04:50
V
12 °C 10 km+ - Var Var 2 kt METAR EDVK 240250Z AUTO VRB02KT 9999 // NCD 12/11 Q1021
04:20
V
12 °C 10 km+ - 290° 290° 1 kt METAR EDVK 240220Z AUTO 29001KT 9999 // NCD 12/11 Q1021
03:50
V
12 °C 10 km+ - 280° 280° 1 kt METAR EDVK 240150Z AUTO 28001KT 9999 // NCD 12/11 Q1021
03:20
V
13 °C 10 km+ - 280° 280° 2 kt METAR EDVK 240120Z AUTO 28002KT 9999 // NCD 13/12 Q1021
02:50
V
13 °C 10 km+ - 280° 280° 3 kt METAR EDVK 240050Z AUTO 28003KT 9999 // NCD 13/12 Q1021
02:20
V
13 °C 10 km+ - 270° 270° 3 kt METAR EDVK 240020Z AUTO 27003KT 9999 // NCD 13/12 Q1021
01:50
V
14 °C 10 km+ - 290° 290° 2 kt METAR EDVK 232350Z AUTO 29002KT 9999 // NCD 14/12 Q1021
01:20
V
14 °C 10 km+ - Var Var 2 kt METAR EDVK 232320Z AUTO VRB02KT 9999 // NCD 14/12 Q1021
00:50
V
14 °C 10 km+ - Var Var 2 kt METAR EDVK 232250Z AUTO VRB02KT 9999 // NCD 14/12 Q1021
00:20
V
14 °C 10 km+ - 360° 360° 0 kt METAR EDVK 232220Z AUTO 00000KT 9999 // NCD 14/13 Q1021

2024年6月23日

时间 代码 天气 温度 能见度 天花板 METAR/SPECI
23:50
V
15 °C 10 km+ - 280° 280° 3 kt METAR EDVK 232150Z AUTO 28003KT 9999 // NCD 15/13 Q1021
23:20
V
16 °C 10 km+ - 230° 230° 2 kt METAR EDVK 232120Z AUTO 23002KT 9999 // NCD 16/13 Q1021
22:50
V
17 °C 10 km+ - 360° 360° 0 kt METAR EDVK 232050Z AUTO 00000KT 9999 // FEW076/// 17/13 Q1021
22:20
V
18 °C 10 km+ 7.700 ft 280° 280° 1 kt METAR EDVK 232020Z AUTO 28001KT 9999 // BKN077/// 18/14 Q1021
21:50
V
19 °C 10 km+ 7.800 ft 360° 360° 0 kt METAR EDVK 231950Z AUTO 00000KT 9999 // BKN078/// 19/13 Q1020
21:20
V
20 °C 10 km+ - 360° 360° 0 kt METAR EDVK 231920Z 00000KT CAVOK 20/13 Q1020
20:50
V
20 °C 10 km+ - Var Var 2 kt METAR EDVK 231850Z VRB02KT CAVOK 20/13 Q1020
20:20
V
20 °C 10 km+ - Var Var 2 kt METAR EDVK 231820Z VRB02KT 9999 FEW042 20/14 Q1020
19:50
V
21 °C 10 km+ - 340° 340° 4 kt METAR EDVK 231750Z 34004KT 270V060 9999 FEW042 21/12 Q1020
19:20
V
22 °C 10 km+ - 320° 320° 4 kt METAR EDVK 231720Z 32004KT 280V010 9999 FEW045 22/13 Q1019
18:50
V
21 °C 10 km+ - 340° 340° 4 kt METAR EDVK 231650Z 34004KT 280V050 9999 FEW046 21/13 Q1019
18:20
V
22 °C 10 km+ - 320° 320° 6 kt METAR EDVK 231620Z 32006KT 280V360 CAVOK 22/11 Q1019
17:50
V
22 °C 10 km+ - 290° 290° 7 kt METAR EDVK 231550Z 29007KT 270V340 CAVOK 22/11 Q1019
17:20
V
22 °C 10 km+ - 290° 290° 5 kt METAR EDVK 231520Z 29005KT 250V320 9999 SCT042 22/12 Q1019
16:50
V
22 °C 10 km+ - 310° 310° 5 kt METAR EDVK 231450Z 31005KT 270V340 9999 SCT040 22/12 Q1019
16:20
V
22 °C 10 km+ - 310° 310° 5 kt METAR EDVK 231420Z 31005KT 270V010 9999 FEW040 22/12 Q1019
15:50
V
21 °C 10 km+ - 310° 310° 6 kt METAR EDVK 231350Z 31006KT 230V010 9999 FEW043 21/12 Q1019
15:20
V
22 °C 10 km+ - 290° 290° 7 kt METAR EDVK 231320Z 29007KT 260V330 9999 FEW044 22/13 Q1019
14:50
V
22 °C 10 km+ - 320° 320° 8 kt METAR EDVK 231250Z 32008KT 250V020 9999 SCT043 22/13 Q1019
14:20
V
22 °C 10 km+ - 290° 290° 6 kt METAR EDVK 231220Z 29006KT 200V350 9999 SCT046 22/12 Q1019
13:50
V
21 °C 10 km+ - 310° 310° 6 kt METAR EDVK 231150Z 31006KT 270V010 9999 SCT043 21/12 Q1019
13:20
V
21 °C 10 km+ - 300° 300° 6 kt METAR EDVK 231120Z 30006KT 250V330 9999 SCT040 21/13 Q1020
12:50
V
20 °C 10 km+ - 280° 280° 6 kt METAR EDVK 231050Z 28006KT 240V330 9999 SCT036 20/12 Q1020
12:20
V
20 °C 10 km+ - 280° 280° 6 kt METAR EDVK 231020Z 28006KT 250V310 9999 FEW031 20/11 Q1020
11:50
V
19 °C 10 km+ - Var Var 4 kt METAR EDVK 230950Z VRB04KT 9999 FEW028 SCT042 19/13 Q1020
11:20
V
19 °C 10 km+ 4.100 ft 300° 300° 6 kt METAR EDVK 230920Z 30006KT 260V350 9999 FEW027 BKN041 19/12 Q1020
10:50
V
19 °C 10 km+ - 290° 290° 5 kt METAR EDVK 230850Z 29005KT 250V330 9999 FEW026 SCT039 19/13 Q1020
10:20
V
18 °C 10 km+ - 270° 270° 6 kt METAR EDVK 230820Z 27006KT 240V320 9999 FEW023 SCT027 18/13 Q1020
09:50
V
17 °C 10 km+ - 290° 290° 6 kt METAR EDVK 230750Z 29006KT 260V320 9999 SCT023 SCT036 17/13 Q1020
09:20
V
17 °C 10 km+ - 310° 310° 4 kt METAR EDVK 230720Z 31004KT 270V040 9999 FEW021 17/12 Q1019
08:50
V
17 °C 10 km+ - 290° 290° 4 kt METAR EDVK 230650Z 29004KT 220V330 9999 FEW017 17/13 Q1019
08:20
V
16 °C 10 km+ - 290° 290° 5 kt METAR EDVK 230620Z 29005KT 260V330 9999 FEW026 16/12 Q1019
07:50
V
15 °C 10 km+ - 290° 290° 5 kt METAR EDVK 230550Z 29005KT 260V330 9999 FEW026 15/13 Q1019
报告变更